| time (UTC) | temp F | wind direction | speed MPH | gust MPH | rain 1hr in | rain 24hr in | rain mn in | humidity % | barometer mb |
| 20260906181039 | 102 | 172 | 3.0 | 4.0 | 0.00 | 0.00 | 0.00 | 35 | 1014.3 |
| 20260906180534 | 104 | 260 | 3.0 | 4.0 | 0.00 | 0.00 | 0.00 | 33 | 1014.2 |
| 20260906180033 | 104 | 224 | 3.0 | 4.0 | 0.00 | 0.00 | 0.00 | 32 | 1014.4 |
| 20260906175532 | 104 | 142 | 1.0 | 3.0 | 0.00 | 0.00 | 0.00 | 32 | 1014.5 |
| 20260906175032 | 104 | 85 | 6.0 | 9.0 | 0.00 | 0.00 | 0.00 | 32 | 1014.6 |
| 20260906174530 | 104 | 346 | 2.0 | 4.0 | 0.00 | 0.00 | 0.00 | 33 | 1014.8 |
| 20260906174025 | 103 | 200 | 2.0 | 4.0 | 0.00 | 0.00 | 0.00 | 33 | 1014.8 |
| 20260906173521 | 103 | 276 | 2.0 | 7.0 | 0.00 | 0.00 | 0.00 | 34 | 1015.0 |
| 20260906173017 | 102 | 53 | 4.0 | 9.0 | 0.00 | 0.00 | 0.00 | 34 | 1015.1 |
| 20260906172517 | 101 | 172 | 2.0 | 2.0 | 0.00 | 0.00 | 0.00 | 35 | 1015.1 |
| 20260906172012 | 101 | 144 | 2.0 | 4.0 | 0.00 | 0.00 | 0.00 | 34 | 1015.3 |
| 20260906171507 | 101 | 96 | 4.0 | 6.0 | 0.00 | 0.00 | 0.00 | 35 | 1015.6 |
| 20260906171002 | 102 | 93 | 4.0 | 4.0 | 0.00 | 0.00 | 0.00 | 35 | 1015.5 |
| 20260906170458 | 102 | 100 | 2.0 | 6.0 | 0.00 | 0.00 | 0.00 | 34 | 1015.6 |
| 20260906165955 | 101 | 81 | 4.0 | 6.0 | 0.00 | 0.00 | 0.00 | 36 | 1015.8 |
| 20260906165454 | 101 | 99 | 2.0 | 4.0 | 0.00 | 0.00 | 0.00 | 35 | 1015.5 |
| 20260906164949 | 100 | 120 | 2.0 | 3.0 | 0.00 | 0.00 | 0.00 | 36 | 1015.6 |
| 20260906164448 | 101 | 89 | 2.0 | 4.0 | 0.00 | 0.00 | 0.00 | 36 | 1015.6 |
| 20260906163945 | 100 | 102 | 2.0 | 2.0 | 0.00 | 0.00 | 0.00 | 38 | 1015.8 |
| 20260906163440 | 100 | 28 | 3.0 | 4.0 | 0.00 | 0.00 | 0.00 | 39 | 1015.8 |
| 20260906162938 | 100 | 104 | 2.0 | 3.0 | 0.00 | 0.00 | 0.00 | 40 | 1015.9 |
| 20260906162436 | 99 | 124 | 2.0 | 4.0 | 0.00 | 0.00 | 0.00 | 40 | 1015.9 |
| 20260906161932 | 99 | 324 | 4.0 | 7.0 | 0.00 | 0.00 | 0.00 | 40 | 1015.8 |
| 20260906161432 | 99 | 120 | 2.0 | 3.0 | 0.00 | 0.00 | 0.00 | 41 | 1015.9 |
| 20260906160931 | 98 | 130 | 0.0 | 1.0 | 0.00 | 0.00 | 0.00 | 41 | 1016.1 |
| 20260906160424 | 98 | 243 | 4.0 | 6.0 | 0.00 | 0.00 | 0.00 | 41 | 1015.9 |
| 20260906155923 | 97 | 103 | 2.0 | 2.0 | 0.00 | 0.00 | 0.00 | 40 | 1016.0 |
| 20260906155422 | 97 | 116 | 2.0 | 2.0 | 0.00 | 0.00 | 0.00 | 41 | 1016.1 |
| 20260906154919 | 97 | 21 | 4.0 | 6.0 | 0.00 | 0.00 | 0.00 | 42 | 1016.0 |
| 20260906154418 | 96 | 115 | 1.0 | 3.0 | 0.00 | 0.00 | 0.00 | 43 | 1015.9 |
| 20260906153917 | 96 | 107 | 0.0 | 2.0 | 0.00 | 0.00 | 0.00 | 43 | 1016.0 |
| 20260906153416 | 96 | 207 | 2.0 | 3.0 | 0.00 | 0.00 | 0.00 | 43 | 1015.9 |
| 20260906152912 | 95 | 262 | 3.0 | 4.0 | 0.00 | 0.00 | 0.00 | 43 | 1015.8 |
| 20260906152406 | 96 | 246 | 3.0 | 4.0 | 0.00 | 0.00 | 0.00 | 43 | 1015.8 |
| 20260906151906 | 95 | 127 | 1.0 | 4.0 | 0.00 | 0.00 | 0.00 | 44 | 1015.9 |
| 20260906151401 | 95 | 262 | 5.0 | 6.0 | 0.00 | 0.00 | 0.00 | 43 | 1015.9 |
| 20260906150857 | 94 | 182 | 1.0 | 4.0 | 0.00 | 0.00 | 0.00 | 45 | 1015.9 |
| 20260906150352 | 93 | 163 | 2.0 | 6.0 | 0.00 | 0.00 | 0.00 | 46 | 1015.8 |
| 20260906145851 | 92 | 137 | 1.0 | 2.0 | 0.00 | 0.00 | 0.00 | 48 | 1015.8 |
| 20260906145350 | 92 | 146 | 1.0 | 3.0 | 0.00 | 0.00 | 0.00 | 48 | 1016.0 |
| 20260906144845 | 92 | 218 | 2.0 | 4.0 | 0.00 | 0.00 | 0.00 | 49 | 1015.8 |
| 20260906144340 | 91 | 166 | 2.0 | 6.0 | 0.00 | 0.00 | 0.00 | 50 | 1015.8 |
| 20260906143840 | 90 | 222 | 2.0 | 4.0 | 0.00 | 0.00 | 0.00 | 52 | 1015.9 |
| 20260906143336 | 90 | 181 | 4.0 | 6.0 | 0.00 | 0.00 | 0.00 | 51 | 1015.8 |
| 20260906142832 | 90 | 141 | 1.0 | 2.0 | 0.00 | 0.00 | 0.00 | 54 | 1015.6 |
| 20260906142327 | 89 | 152 | 1.0 | 2.0 | 0.00 | 0.00 | 0.00 | 54 | 1015.9 |
| 20260906141826 | 89 | 224 | 2.0 | 6.0 | 0.00 | 0.00 | 0.00 | 55 | 1015.9 |
| 20260906141321 | 88 | 191 | 2.0 | 2.0 | 0.00 | 0.00 | 0.00 | 56 | 1015.9 |
| 20260906140819 | 87 | 201 | 2.0 | 2.0 | 0.00 | 0.00 | 0.00 | 58 | 1015.8 |
| 20260906140315 | 87 | 195 | 3.0 | 3.0 | 0.00 | 0.00 | 0.00 | 57 | 1015.8 |
| 20260906135812 | 87 | 198 | 2.0 | 3.0 | 0.00 | 0.00 | 0.00 | 59 | 1015.8 |
| 20260906135307 | 86 | 149 | 1.0 | 2.0 | 0.00 | 0.00 | 0.00 | 60 | 1015.6 |
| 20260906134803 | 86 | 157 | 2.0 | 3.0 | 0.00 | 0.00 | 0.00 | 60 | 1015.6 |
| 20260906134258 | 86 | 164 | 2.0 | 2.0 | 0.00 | 0.00 | 0.00 | 61 | 1015.5 |
| 20260906133754 | 86 | 163 | 2.0 | 2.0 | 0.00 | 0.00 | 0.00 | 61 | 1015.6 |
| 20260906133249 | 85 | 169 | 1.0 | 2.0 | 0.00 | 0.00 | 0.00 | 62 | 1015.5 |
| 20260906132744 | 85 | 154 | 1.0 | 1.0 | 0.00 | 0.00 | 0.00 | 62 | 1015.5 |
| 20260906132239 | 83 | 148 | 0.0 | 0.0 | 0.00 | 0.00 | 0.00 | 65 | 1015.2 |
| 20260906131735 | 82 | 148 | 0.0 | 0.0 | 0.00 | 0.00 | 0.00 | 68 | 1015.4 |
| 20260906131230 | 80 | 148 | 0.0 | 0.0 | 0.00 | 0.00 | 0.00 | 70 | 1015.2 |
| 20260906130726 | 79 | 148 | 0.0 | 0.0 | 0.00 | 0.00 | 0.00 | 74 | 1015.2 |
| 20260906130220 | 77 | 149 | 0.0 | 0.0 | 0.00 | 0.00 | 0.00 | 83 | 1015.2 |
| 20260906125719 | 75 | 149 | 0.0 | 0.0 | 0.00 | 0.00 | 0.00 | 87 | 1015.2 |
| 20260906125217 | 73 | 149 | 0.0 | 0.0 | 0.00 | 0.00 | 0.00 | 90 | 1015.0 |
| 20260906124712 | 71 | 149 | 0.0 | 0.0 | 0.00 | 0.00 | 0.00 | 91 | 1015.0 |
| 20260906124208 | 71 | 150 | 0.0 | 0.0 | 0.00 | 0.00 | 0.00 | 91 | 1015.1 |
| 20260906123706 | 70 | 150 | 0.0 | 0.0 | 0.00 | 0.00 | 0.00 | 91 | 1015.0 |
| 20260906123202 | 70 | 150 | 0.0 | 0.0 | 0.00 | 0.00 | 0.00 | 91 | 1014.8 |
| 20260906122701 | 69 | 150 | 0.0 | 0.0 | 0.00 | 0.00 | 0.00 | 91 | 1014.9 |
| 20260906122157 | 69 | 150 | 0.0 | 0.0 | 0.00 | 0.00 | 0.00 | 91 | 1014.8 |
| 20260906121653 | 69 | 150 | 0.0 | 0.0 | 0.00 | 0.00 | 0.00 | 91 | 1014.9 |
| 20260906121149 | 69 | 149 | 0.0 | 0.0 | 0.00 | 0.00 | 0.00 | 91 | 1014.8 |
| 20260906120645 | 69 | 148 | 0.0 | 0.0 | 0.00 | 0.00 | 0.00 | 91 | 1014.8 |
| 20260906120142 | 69 | 149 | 0.0 | 0.0 | 0.00 | 0.00 | 0.00 | 91 | 1014.9 |
| 20260906115642 | 69 | 149 | 0.0 | 0.0 | 0.00 | 0.00 | 0.00 | 91 | 1014.8 |
| 20260906115138 | 69 | 149 | 0.0 | 0.0 | 0.00 | 0.00 | 0.00 | 91 | 1014.9 |
| 20260906114636 | 69 | 149 | 0.0 | 0.0 | 0.00 | 0.00 | 0.00 | 91 | 1014.9 |
| 20260906114131 | 69 | 149 | 0.0 | 0.0 | 0.00 | 0.00 | 0.00 | 90 | 1014.7 |
| 20260906113631 | 69 | 149 | 0.0 | 0.0 | 0.00 | 0.00 | 0.00 | 90 | 1014.6 |
| 20260906113126 | 69 | 149 | 0.0 | 0.0 | 0.00 | 0.00 | 0.00 | 90 | 1014.6 |
| 20260906112626 | 69 | 149 | 0.0 | 0.0 | 0.00 | 0.00 | 0.00 | 90 | 1014.5 |
| 20260906112123 | 69 | 149 | 0.0 | 0.0 | 0.00 | 0.00 | 0.00 | 90 | 1014.5 |
| 20260906111622 | 69 | 149 | 0.0 | 0.0 | 0.00 | 0.00 | 0.00 | 90 | 1014.5 |
| 20260906111117 | 69 | 149 | 0.0 | 0.0 | 0.00 | 0.00 | 0.00 | 90 | 1014.6 |
| 20260906110612 | 69 | 149 | 0.0 | 0.0 | 0.00 | 0.00 | 0.00 | 89 | 1014.4 |
| 20260906110112 | 69 | 149 | 0.0 | 0.0 | 0.00 | 0.00 | 0.00 | 89 | 1014.7 |
| 20260906105606 | 69 | 149 | 0.0 | 0.0 | 0.00 | 0.00 | 0.00 | 89 | 1014.5 |
| 20260906105102 | 69 | 149 | 0.0 | 0.0 | 0.00 | 0.00 | 0.00 | 89 | 1014.3 |
| 20260906104601 | 69 | 149 | 0.0 | 0.0 | 0.00 | 0.00 | 0.00 | 89 | 1014.5 |
| 20260906104055 | 69 | 149 | 0.0 | 0.0 | 0.00 | 0.00 | 0.00 | 89 | 1014.4 |
| 20260906103554 | 69 | 149 | 0.0 | 0.0 | 0.00 | 0.00 | 0.00 | 89 | 1014.3 |
| 20260906103049 | 69 | 149 | 0.0 | 0.0 | 0.00 | 0.00 | 0.00 | 89 | 1014.4 |
| 20260906102549 | 70 | 155 | 0.0 | 0.0 | 0.00 | 0.00 | 0.00 | 88 | 1014.2 |
| 20260906102045 | 70 | 155 | 0.0 | 0.0 | 0.00 | 0.00 | 0.00 | 88 | 1014.3 |
| 20260906101544 | 70 | 155 | 0.0 | 0.0 | 0.00 | 0.00 | 0.00 | 88 | 1014.2 |
| 20260906101039 | 70 | 155 | 0.0 | 0.0 | 0.00 | 0.00 | 0.00 | 88 | 1014.2 |
| 20260906100535 | 70 | 155 | 0.0 | 0.0 | 0.00 | 0.00 | 0.00 | 88 | 1014.3 |
| 20260906100035 | 70 | 155 | 0.0 | 0.0 | 0.00 | 0.00 | 0.00 | 88 | 1014.4 |
| 20260906095530 | 70 | 155 | 0.0 | 0.0 | 0.00 | 0.00 | 0.00 | 87 | 1014.2 |
| 20260906095026 | 70 | 155 | 0.0 | 0.0 | 0.00 | 0.00 | 0.00 | 87 | 1014.2 |
| 20260906094524 | 70 | 155 | 0.0 | 0.0 | 0.00 | 0.00 | 0.00 | 87 | 1014.0 |
| 20260906094020 | 70 | 155 | 0.0 | 0.0 | 0.00 | 0.00 | 0.00 | 87 | 1014.1 |
| 20260906093516 | 70 | 155 | 0.0 | 0.0 | 0.00 | 0.00 | 0.00 | 87 | 1014.0 |
| 20260906093016 | 70 | 155 | 0.0 | 0.0 | 0.00 | 0.00 | 0.00 | 87 | 1013.8 |
| 20260906092516 | 70 | 155 | 0.0 | 0.0 | 0.00 | 0.00 | 0.00 | 87 | 1013.8 |
| 20260906092012 | 70 | 155 | 0.0 | 0.0 | 0.00 | 0.00 | 0.00 | 87 | 1013.9 |
| 20260906091507 | 71 | 155 | 0.0 | 0.0 | 0.00 | 0.00 | 0.00 | 87 | 1013.7 |
| 20260906091005 | 71 | 155 | 0.0 | 0.0 | 0.00 | 0.00 | 0.00 | 86 | 1013.8 |
| 20260906090505 | 71 | 155 | 0.0 | 0.0 | 0.00 | 0.00 | 0.00 | 86 | 1013.9 |
| 20260906090005 | 71 | 155 | 0.0 | 0.0 | 0.00 | 0.00 | 0.00 | 86 | 1013.9 |
| 20260906085504 | 71 | 155 | 0.0 | 0.0 | 0.00 | 0.00 | 0.00 | 86 | 1013.9 |
| 20260906085003 | 71 | 155 | 0.0 | 0.0 | 0.00 | 0.00 | 0.00 | 86 | 1013.8 |
| 20260906084458 | 71 | 155 | 0.0 | 0.0 | 0.00 | 0.00 | 0.00 | 86 | 1013.8 |
| 20260906083957 | 71 | 155 | 0.0 | 0.0 | 0.00 | 0.00 | 0.00 | 86 | 1013.7 |
| 20260906083453 | 71 | 155 | 0.0 | 0.0 | 0.00 | 0.00 | 0.00 | 86 | 1013.7 |
| 20260906082952 | 71 | 155 | 0.0 | 0.0 | 0.00 | 0.00 | 0.00 | 86 | 1013.7 |
| 20260906082448 | 71 | 155 | 0.0 | 0.0 | 0.00 | 0.00 | 0.00 | 86 | 1013.5 |
| 20260906081943 | 71 | 155 | 0.0 | 0.0 | 0.00 | 0.00 | 0.00 | 85 | 1013.7 |
| 20260906081444 | 71 | 155 | 0.0 | 0.0 | 0.00 | 0.00 | 0.00 | 85 | 1013.5 |
| 20260906080940 | 72 | 155 | 0.0 | 0.0 | 0.00 | 0.00 | 0.00 | 85 | 1013.6 |
| 20260906080436 | 72 | 155 | 0.0 | 0.0 | 0.00 | 0.00 | 0.00 | 85 | 1013.5 |
| 20260906075937 | 72 | 155 | 0.0 | 0.0 | 0.00 | 0.00 | 0.00 | 84 | 1013.8 |
| 20260906075432 | 72 | 155 | 0.0 | 0.0 | 0.00 | 0.00 | 0.00 | 84 | 1013.5 |
| 20260906074927 | 72 | 155 | 0.0 | 0.0 | 0.00 | 0.00 | 0.00 | 84 | 1013.6 |
| 20260906074427 | 72 | 155 | 0.0 | 0.0 | 0.00 | 0.00 | 0.00 | 83 | 1013.6 |
| 20260906073925 | 72 | 155 | 0.0 | 0.0 | 0.00 | 0.00 | 0.00 | 83 | 1013.8 |
| 20260906073420 | 73 | 155 | 0.0 | 0.0 | 0.00 | 0.00 | 0.00 | 83 | 1013.6 |
| 20260906072917 | 73 | 155 | 0.0 | 0.0 | 0.00 | 0.00 | 0.00 | 82 | 1013.8 |
| 20260906072412 | 73 | 155 | 0.0 | 0.0 | 0.00 | 0.00 | 0.00 | 82 | 1013.7 |
| 20260906071908 | 73 | 155 | 0.0 | 0.0 | 0.00 | 0.00 | 0.00 | 82 | 1014.0 |
| 20260906071403 | 73 | 155 | 0.0 | 0.0 | 0.00 | 0.00 | 0.00 | 82 | 1013.8 |
| 20260906070859 | 73 | 155 | 0.0 | 0.0 | 0.00 | 0.00 | 0.00 | 81 | 1013.9 |
| 20260906070355 | 73 | 155 | 0.0 | 0.0 | 0.00 | 0.00 | 0.00 | 81 | 1014.0 |
| 20260906065850 | 74 | 155 | 0.0 | 0.0 | 0.00 | 0.00 | 0.00 | 80 | 1013.9 |
| 20260906065344 | 74 | 155 | 0.0 | 0.0 | 0.00 | 0.00 | 0.00 | 79 | 1014.0 |
| 20260906064840 | 74 | 155 | 0.0 | 0.0 | 0.00 | 0.00 | 0.00 | 79 | 1013.9 |
| 20260906064337 | 75 | 155 | 0.0 | 0.0 | 0.00 | 0.00 | 0.00 | 78 | 1013.8 |
| 20260906063836 | 75 | 155 | 0.0 | 0.0 | 0.00 | 0.00 | 0.00 | 77 | 1014.0 |
| 20260906063332 | 75 | 155 | 0.0 | 0.0 | 0.00 | 0.00 | 0.00 | 76 | 1014.1 |
| 20260906062827 | 76 | 155 | 0.0 | 0.0 | 0.00 | 0.00 | 0.00 | 76 | 1014.0 |
| 20260906062326 | 76 | 155 | 0.0 | 0.0 | 0.00 | 0.00 | 0.00 | 76 | 1013.9 |
| 20260906061822 | 77 | 155 | 0.0 | 0.0 | 0.00 | 0.00 | 0.00 | 75 | 1014.0 |
| 20260906061318 | 77 | 155 | 0.0 | 1.0 | 0.00 | 0.00 | 0.00 | 75 | 1014.1 |
| 20260906060812 | 77 | 155 | 0.0 | 0.0 | 0.00 | 0.00 | 0.00 | 74 | 1014.1 |
| 20260906060310 | 77 | 155 | 0.0 | 1.0 | 0.00 | 0.00 | 0.00 | 74 | 1014.3 |
| 20260906055806 | 77 | 158 | 0.0 | 2.0 | 0.00 | 0.00 | 0.00 | 73 | 1014.3 |
| 20260906055301 | 77 | 149 | 1.0 | 1.0 | 0.00 | 0.00 | 0.00 | 74 | 1014.4 |
| 20260906054756 | 77 | 148 | 1.0 | 1.0 | 0.00 | 0.00 | 0.00 | 74 | 1014.2 |
| 20260906054252 | 76 | 150 | 0.0 | 1.0 | 0.00 | 0.00 | 0.00 | 75 | 1014.2 |
| 20260906053748 | 75 | 112 | 0.0 | 0.0 | 0.00 | 0.00 | 0.00 | 78 | 1014.3 |
| 20260906053244 | 75 | 112 | 0.0 | 0.0 | 0.00 | 0.00 | 0.00 | 78 | 1014.0 |
| 20260906052738 | 75 | 112 | 0.0 | 0.0 | 0.00 | 0.00 | 0.00 | 78 | 1014.3 |
| 20260906052235 | 76 | 112 | 0.0 | 0.0 | 0.00 | 0.00 | 0.00 | 78 | 1014.2 |
| 20260906051731 | 76 | 112 | 0.0 | 0.0 | 0.00 | 0.00 | 0.00 | 78 | 1014.0 |
| 20260906051231 | 76 | 112 | 0.0 | 0.0 | 0.00 | 0.00 | 0.00 | 77 | 1014.1 |
| 20260906050726 | 76 | 112 | 0.0 | 0.0 | 0.00 | 0.00 | 0.00 | 76 | 1014.1 |
| 20260906050221 | 76 | 112 | 0.0 | 0.0 | 0.00 | 0.00 | 0.00 | 76 | 1014.0 |
| 20260906045719 | 76 | 112 | 0.0 | 0.0 | 0.00 | 0.00 | 0.00 | 76 | 1014.0 |
| 20260906045215 | 77 | 112 | 0.0 | 0.0 | 0.00 | 0.00 | 0.00 | 76 | 1013.9 |
| 20260906044711 | 77 | 112 | 0.0 | 0.0 | 0.00 | 0.00 | 0.00 | 75 | 1013.8 |
| 20260906044206 | 77 | 112 | 0.0 | 0.0 | 0.00 | 0.00 | 0.00 | 75 | 1014.0 |
| 20260906043702 | 77 | 112 | 0.0 | 0.0 | 0.00 | 0.00 | 0.00 | 75 | 1014.3 |
| 20260906043158 | 77 | 112 | 0.0 | 0.0 | 0.00 | 0.00 | 0.00 | 75 | 1014.1 |
| 20260906042657 | 77 | 112 | 2.0 | 2.0 | 0.00 | 0.00 | 0.00 | 76 | 1013.9 |
| 20260906042157 | 77 | 112 | 0.0 | 0.0 | 0.00 | 0.00 | 0.00 | 75 | 1014.1 |
| 20260906041653 | 77 | 111 | 0.0 | 0.0 | 0.00 | 0.00 | 0.00 | 75 | 1013.9 |
| 20260906041147 | 77 | 111 | 0.0 | 0.0 | 0.00 | 0.00 | 0.00 | 75 | 1014.1 |
| 20260906040643 | 77 | 111 | 0.0 | 0.0 | 0.00 | 0.00 | 0.00 | 74 | 1014.0 |
| 20260906040138 | 77 | 111 | 0.0 | 0.0 | 0.00 | 0.00 | 0.00 | 74 | 1013.9 |
| 20260906035633 | 77 | 111 | 0.0 | 0.0 | 0.00 | 0.00 | 0.00 | 74 | 1014.0 |
| 20260906035129 | 77 | 111 | 0.0 | 0.0 | 0.00 | 0.00 | 0.00 | 74 | 1014.1 |
| 20260906034630 | 77 | 111 | 0.0 | 0.0 | 0.00 | 0.00 | 0.00 | 74 | 1014.1 |
| 20260906034129 | 77 | 111 | 0.0 | 0.0 | 0.00 | 0.00 | 0.00 | 74 | 1013.9 |
| 20260906033625 | 77 | 111 | 0.0 | 0.0 | 0.00 | 0.00 | 0.00 | 74 | 1013.7 |
| 20260906033120 | 77 | 111 | 0.0 | 0.0 | 0.00 | 0.00 | 0.00 | 74 | 1013.7 |
| 20260906032617 | 77 | 112 | 0.0 | 0.0 | 0.00 | 0.00 | 0.00 | 74 | 1013.8 |
| 20260906032116 | 77 | 111 | 0.0 | 0.0 | 0.00 | 0.00 | 0.00 | 73 | 1013.7 |
| 20260906031612 | 77 | 111 | 0.0 | 0.0 | 0.00 | 0.00 | 0.00 | 74 | 1013.8 |
| 20260906031107 | 77 | 111 | 0.0 | 0.0 | 0.00 | 0.00 | 0.00 | 73 | 1013.7 |
| 20260906030606 | 77 | 111 | 0.0 | 0.0 | 0.00 | 0.00 | 0.00 | 73 | 1013.7 |
| 20260906025601 | 78 | 111 | 0.0 | 0.0 | 0.00 | 0.00 | 0.00 | 72 | 1013.4 |
| 20260906025100 | 78 | 111 | 0.0 | 0.0 | 0.00 | 0.00 | 0.00 | 72 | 1013.6 |
| 20260906024555 | 78 | 111 | 0.0 | 1.0 | 0.00 | 0.00 | 0.00 | 71 | 1013.5 |
| 20260906024055 | 78 | 111 | 0.0 | 1.0 | 0.00 | 0.00 | 0.00 | 71 | 1013.4 |
| 20260906023552 | 78 | 112 | 0.0 | 0.0 | 0.00 | 0.00 | 0.00 | 71 | 1013.5 |
| 20260906023051 | 79 | 112 | 0.0 | 0.0 | 0.00 | 0.00 | 0.00 | 69 | 1013.3 |
| 20260906022547 | 79 | 112 | 0.0 | 0.0 | 0.00 | 0.00 | 0.00 | 68 | 1013.5 |
| 20260906022042 | 79 | 112 | 0.0 | 0.0 | 0.00 | 0.00 | 0.00 | 68 | 1013.3 |
| 20260906021538 | 80 | 112 | 0.0 | 0.0 | 0.00 | 0.00 | 0.00 | 68 | 1013.1 |
| 20260906021037 | 80 | 112 | 0.0 | 0.0 | 0.00 | 0.00 | 0.00 | 68 | 1012.9 |
| 20260906020537 | 80 | 112 | 0.0 | 0.0 | 0.00 | 0.00 | 0.00 | 67 | 1012.9 |
| 20260906020036 | 80 | 112 | 0.0 | 0.0 | 0.00 | 0.00 | 0.00 | 66 | 1012.9 |
| 20260906015535 | 81 | 112 | 0.0 | 0.0 | 0.00 | 0.00 | 0.00 | 66 | 1013.0 |
| 20260906015029 | 81 | 112 | 0.0 | 0.0 | 0.00 | 0.00 | 0.00 | 65 | 1013.0 |
| 20260906014524 | 81 | 112 | 0.0 | 0.0 | 0.00 | 0.00 | 0.00 | 64 | 1012.8 |
| 20260906014020 | 82 | 112 | 0.0 | 0.0 | 0.00 | 0.00 | 0.00 | 63 | 1012.7 |
| 20260906013515 | 82 | 112 | 0.0 | 0.0 | 0.00 | 0.00 | 0.00 | 62 | 1012.9 |
| 20260906013011 | 82 | 112 | 0.0 | 0.0 | 0.00 | 0.00 | 0.00 | 61 | 1012.7 |
| 20260906012506 | 83 | 112 | 0.0 | 0.0 | 0.00 | 0.00 | 0.00 | 60 | 1012.8 |
| 20260906012005 | 84 | 111 | 0.0 | 0.0 | 0.00 | 0.00 | 0.00 | 59 | 1012.6 |
| 20260906011501 | 84 | 111 | 0.0 | 0.0 | 0.00 | 0.00 | 0.00 | 58 | 1012.7 |
| 20260906010956 | 85 | 111 | 0.0 | 0.0 | 0.00 | 0.00 | 0.00 | 57 | 1012.6 |
| 20260906010452 | 86 | 111 | 0.0 | 0.0 | 0.00 | 0.00 | 0.00 | 55 | 1012.4 |
| 20260906005948 | 87 | 111 | 0.0 | 0.0 | 0.00 | 0.00 | 0.00 | 54 | 1012.4 |
| 20260906005447 | 88 | 111 | 0.0 | 0.0 | 0.00 | 0.00 | 0.00 | 52 | 1012.4 |
| 20260906004946 | 89 | 111 | 0.0 | 0.0 | 0.00 | 0.00 | 0.00 | 50 | 1012.3 |
| 20260906004445 | 91 | 111 | 0.0 | 0.0 | 0.00 | 0.00 | 0.00 | 49 | 1012.1 |
| 20260906003941 | 92 | 111 | 0.0 | 0.0 | 0.00 | 0.00 | 0.00 | 47 | 1012.3 |
| 20260906003436 | 93 | 111 | 0.0 | 0.0 | 0.00 | 0.00 | 0.00 | 45 | 1012.4 |
| 20260906002931 | 95 | 107 | 0.0 | 0.0 | 0.00 | 0.00 | 0.00 | 43 | 1012.4 |
| 20260906002431 | 96 | 105 | 0.0 | 0.0 | 0.00 | 0.00 | 0.00 | 42 | 1012.4 |
| 20260906001926 | 96 | 105 | 0.0 | 0.0 | 0.00 | 0.00 | 0.00 | 41 | 1012.4 |
| 20260906001421 | 97 | 104 | 0.0 | 0.0 | 0.00 | 0.00 | 0.00 | 39 | 1012.4 |
| 20260906000917 | 98 | 125 | 1.0 | 1.0 | 0.00 | 0.00 | 0.00 | 38 | 1012.4 |
| 20260906000412 | 99 | 125 | 1.0 | 1.0 | 0.00 | 0.00 | 0.00 | 36 | 1012.6 |
| 20260905235907 | 99 | 125 | 0.0 | 0.0 | 0.00 | 0.00 | 0.00 | 36 | 1012.3 |
| 20260905235401 | 100 | 97 | 0.0 | 0.0 | 0.00 | 0.00 | 0.00 | 36 | 1012.3 |
| 20260905234856 | 100 | 96 | 1.0 | 2.0 | 0.00 | 0.00 | 0.00 | 35 | 1012.7 |
| 20260905234352 | 100 | 112 | 1.0 | 2.0 | 0.00 | 0.00 | 0.00 | 35 | 1012.3 |
| 20260905233847 | 100 | 84 | 4.0 | 4.0 | 0.00 | 0.00 | 0.00 | 33 | 1012.3 |
| 20260905233347 | 100 | 115 | 1.0 | 1.0 | 0.00 | 0.00 | 0.00 | 34 | 1012.2 |
| 20260905232846 | 100 | 116 | 1.0 | 3.0 | 0.00 | 0.00 | 0.00 | 35 | 1012.2 |
| 20260905232342 | 101 | 74 | 2.0 | 3.0 | 0.00 | 0.00 | 0.00 | 34 | 1012.3 |
| 20260905231833 | 101 | 97 | 1.0 | 2.0 | 0.00 | 0.00 | 0.00 | 34 | 1012.3 |
| 20260905231332 | 101 | 69 | 2.0 | 4.0 | 0.00 | 0.00 | 0.00 | 34 | 1012.3 |
| 20260905230829 | 101 | 110 | 2.0 | 3.0 | 0.00 | 0.00 | 0.00 | 34 | 1012.3 |
| 20260905230327 | 101 | 82 | 2.0 | 3.0 | 0.00 | 0.00 | 0.00 | 33 | 1012.3 |
| 20260905225826 | 101 | 95 | 2.0 | 2.0 | 0.00 | 0.00 | 0.00 | 33 | 1012.1 |
| 20260905225322 | 102 | 70 | 5.0 | 7.0 | 0.00 | 0.00 | 0.00 | 33 | 1012.3 |
| 20260905224821 | 102 | 83 | 4.0 | 6.0 | 0.00 | 0.00 | 0.00 | 33 | 1012.3 |
| 20260905224317 | 102 | 48 | 2.0 | 6.0 | 0.00 | 0.00 | 0.00 | 33 | 1012.2 |
| 20260905223812 | 102 | 76 | 2.0 | 4.0 | 0.00 | 0.00 | 0.00 | 33 | 1012.0 |
| 20260905223310 | 102 | 117 | 1.0 | 3.0 | 0.00 | 0.00 | 0.00 | 34 | 1012.2 |
| 20260905222805 | 101 | 345 | 2.0 | 3.0 | 0.00 | 0.00 | 0.00 | 34 | 1012.1 |
| 20260905222306 | 100 | 200 | 2.0 | 4.0 | 0.00 | 0.00 | 0.00 | 35 | 1012.2 |
| 20260905221800 | 100 | 70 | 3.0 | 6.0 | 0.00 | 0.00 | 0.00 | 35 | 1012.3 |
| 20260905221256 | 98 | 343 | 4.0 | 4.0 | 0.00 | 0.00 | 0.00 | 36 | 1012.3 |
| 20260905220752 | 98 | 100 | 0.0 | 1.0 | 0.00 | 0.00 | 0.00 | 37 | 1012.4 |
| 20260905220248 | 98 | 100 | 1.0 | 1.0 | 0.00 | 0.00 | 0.00 | 36 | 1012.4 |
| 20260905215747 | 98 | 100 | 0.0 | 0.0 | 0.00 | 0.00 | 0.00 | 36 | 1012.7 |
| 20260905215243 | 98 | 102 | 1.0 | 2.0 | 0.00 | 0.00 | 0.00 | 35 | 1012.6 |
| 20260905214738 | 98 | 120 | 0.0 | 1.0 | 0.00 | 0.00 | 0.00 | 36 | 1012.8 |
| 20260905214234 | 98 | 110 | 1.0 | 1.0 | 0.00 | 0.00 | 0.00 | 36 | 1012.9 |
| 20260905213729 | 99 | 108 | 0.0 | 2.0 | 0.00 | 0.00 | 0.00 | 36 | 1012.7 |
| 20260905213226 | 100 | 345 | 4.0 | 4.0 | 0.00 | 0.00 | 0.00 | 35 | 1012.8 |
| 20260905212720 | 101 | 313 | 4.0 | 7.0 | 0.00 | 0.00 | 0.00 | 34 | 1012.8 |
| 20260905212220 | 102 | 121 | 0.0 | 6.0 | 0.00 | 0.00 | 0.00 | 33 | 1013.0 |
| 20260905211719 | 102 | 121 | 1.0 | 4.0 | 0.00 | 0.00 | 0.00 | 34 | 1013.1 |
| 20260905211214 | 102 | 88 | 5.0 | 6.0 | 0.00 | 0.00 | 0.00 | 34 | 1013.1 |
| 20260905210712 | 102 | 126 | 3.0 | 6.0 | 0.00 | 0.00 | 0.00 | 34 | 1013.2 |
| 20260905210212 | 102 | 67 | 5.0 | 6.0 | 0.00 | 0.00 | 0.00 | 34 | 1013.1 |
| 20260905205710 | 102 | 105 | 4.0 | 6.0 | 0.00 | 0.00 | 0.00 | 34 | 1013.3 |
| 20260905205205 | 102 | 86 | 3.0 | 6.0 | 0.00 | 0.00 | 0.00 | 34 | 1013.4 |
| 20260905204704 | 103 | 84 | 2.0 | 3.0 | 0.00 | 0.00 | 0.00 | 34 | 1013.5 |
| 20260905204159 | 102 | 90 | 1.0 | 2.0 | 0.00 | 0.00 | 0.00 | 34 | 1013.4 |
| 20260905203654 | 102 | 175 | 2.0 | 6.0 | 0.00 | 0.00 | 0.00 | 34 | 1013.6 |
| 20260905203150 | 101 | 94 | 2.0 | 4.0 | 0.00 | 0.00 | 0.00 | 34 | 1013.8 |
| 20260905202645 | 101 | 336 | 4.0 | 4.0 | 0.00 | 0.00 | 0.00 | 35 | 1013.7 |
| 20260905202140 | 102 | 159 | 1.0 | 4.0 | 0.00 | 0.00 | 0.00 | 34 | 1013.9 |
| 20260905201636 | 102 | 192 | 1.0 | 4.0 | 0.00 | 0.00 | 0.00 | 34 | 1013.8 |
| 20260905201135 | 99 | 118 | 0.0 | 2.0 | 0.00 | 0.00 | 0.00 | 38 | 1013.9 |
| 20260905200631 | 99 | 55 | 2.0 | 2.0 | 0.00 | 0.00 | 0.00 | 37 | 1013.9 |
| 20260905200126 | 99 | 84 | 2.0 | 4.0 | 0.00 | 0.00 | 0.00 | 37 | 1014.2 |
| 20260905195625 | 100 | 142 | 1.0 | 2.0 | 0.00 | 0.00 | 0.00 | 36 | 1014.2 |
| 20260905195121 | 100 | 93 | 3.0 | 4.0 | 0.00 | 0.00 | 0.00 | 36 | 1014.1 |
| 20260905194620 | 100 | 109 | 2.0 | 3.0 | 0.00 | 0.00 | 0.00 | 37 | 1014.3 |
| 20260905194120 | 100 | 96 | 3.0 | 3.0 | 0.00 | 0.00 | 0.00 | 37 | 1014.2 |
| 20260905193615 | 100 | 62 | 3.0 | 4.0 | 0.00 | 0.00 | 0.00 | 38 | 1014.1 |
| 20260905193109 | 100 | 180 | 2.0 | 3.0 | 0.00 | 0.00 | 0.00 | 37 | 1014.4 |
| 20260905192605 | 101 | 66 | 3.0 | 4.0 | 0.00 | 0.00 | 0.00 | 37 | 1014.5 |
| 20260905192101 | 101 | 29 | 4.0 | 8.0 | 0.00 | 0.00 | 0.00 | 36 | 1014.5 |
| 20260905191559 | 101 | 165 | 2.0 | 3.0 | 0.00 | 0.00 | 0.00 | 36 | 1014.5 |
| 20260905191059 | 101 | 132 | 2.0 | 4.0 | 0.00 | 0.00 | 0.00 | 36 | 1014.8 |
| 20260905190557 | 100 | 112 | 0.0 | 2.0 | 0.00 | 0.00 | 0.00 | 36 | 1014.6 |
| 20260905190057 | 100 | 265 | 2.0 | 6.0 | 0.00 | 0.00 | 0.00 | 36 | 1014.8 |
| 20260905185556 | 101 | 328 | 5.0 | 10.0 | 0.00 | 0.00 | 0.00 | 36 | 1014.8 |
| 20260905185056 | 100 | 253 | 5.0 | 7.0 | 0.00 | 0.00 | 0.00 | 36 | 1014.9 |
| 20260905184550 | 100 | 224 | 2.0 | 7.0 | 0.00 | 0.00 | 0.00 | 38 | 1014.9 |
| 20260905184049 | 99 | 156 | 2.0 | 4.0 | 0.00 | 0.00 | 0.00 | 38 | 1015.2 |
| 20260905183543 | 98 | 81 | 1.0 | 3.0 | 0.00 | 0.00 | 0.00 | 38 | 1015.3 |
| 20260905183038 | 97 | 350 | 5.0 | 7.0 | 0.00 | 0.00 | 0.00 | 40 | 1015.4 |
| 20260905182533 | 97 | 77 | 3.0 | 3.0 | 0.00 | 0.00 | 0.00 | 41 | 1015.3 |
| 20260905182032 | 98 | 45 | 3.0 | 6.0 | 0.00 | 0.00 | 0.00 | 40 | 1015.3 |
| 20260905181527 | 98 | 140 | 0.0 | 2.0 | 0.00 | 0.00 | 0.00 | 40 | 1015.3 |